Time;durP1;ratioP1;P1;durP2;ratioP2;P2;SDS_P1;SDS_P2;PMS_P1;PMS_P2;Temp;Humidity;BMP_temperature;BMP_pressure;BME280_temperature;BME280_humidity;BME280_pressure;Samples;Min_cycle;Max_cycle;Signal;HPM_P1;HPM_P2
2021/11/02 00:00:09;;;;;;;;;;;;;;;;;;344398;28;1362;-73
2021/11/02 00:00:35;;;;;;;;;;;;;;;;;;344396;28;1236;-74
2021/11/02 00:00:45;;;;;;;;;;;;;;;;;;344363;28;1283;-73
2021/11/02 00:00:55;;;;;;;;;;;;;;;;;;343082;28;969;-74
2021/11/02 00:01:06;;;;;;;;;;;;;;;;;;343158;28;925;-74
2021/11/02 00:01:17;;;;;;;;;;;;;;;;;;343162;28;858;-73
2021/11/02 00:01:27;;;;;;;;;;;;;;;;;;341842;28;962;-74
2021/11/02 00:01:38;;;;;;;;;;;;;;;;;;341789;29;879;-74
2021/11/02 00:01:48;;;;;;;;;;;;;;;;;;343121;28;1107;-74
2021/11/02 00:02:04;;;;;;;;;;;;;;;;;;343123;28;870;-74
2021/11/02 00:02:14;;;;;;;;;;;;;;;;;;342321;28;954;-73
2021/11/02 00:02:25;;;;;;;;;;;;;;;;;;343177;28;930;-74
2021/11/02 00:02:35;;;;;;;;;;;;;;;;;;344567;28;764;-73
2021/11/02 00:02:47;;;;;;;;;;;;;;;;;;345684;28;1037;-74
2021/11/02 00:02:57;;;;;;;;;;;;;;;;;;347284;28;611;-74
2021/11/02 00:03:08;;;;;;;;;;;;;;;;;;345688;28;1186;-73
2021/11/02 00:03:45;;;;;;;;;;;;;;;;;;342994;28;1187;-74
2021/11/02 00:03:55;;;;;;;;;;;;;;;;;;343153;28;807;-73
2021/11/02 00:04:32;;;;;;;;;;;;;;;;;;343233;28;847;-74
2021/11/02 00:04:42;;;;;;;;;;;;;;;;;;343137;28;933;-73
2021/11/02 00:04:52;;;;;;;;;;;;;;;;;;341781;29;989;-73
2021/11/02 00:05:03;;;;;;;;;;;;;;;;;;342216;28;1442;-74
2021/11/02 00:05:19;;;;;;;;;;;;;;;;;;343476;28;1682;-73
2021/11/02 00:05:30;;;;;;;;;;;;;;;;;;343137;28;1043;-74
2021/11/02 00:05:40;;;;;;;;;;;;;;;;;;343780;28;922;-74
2021/11/02 00:05:50;;;;;;;;;;;;;;;;;;345118;28;953;-73
2021/11/02 00:06:01;;;;;;;;;;;;;;;;;;345765;28;929;-73
2021/11/02 00:06:12;;;;;;;;;;;;;;;;;;344435;28;1361;-73
2021/11/02 00:06:22;;;;;;;;;;;;;;;;;;344188;28;924;-73
2021/11/02 00:06:36;;;;;;;;;;;;;;;;;;344519;28;1028;-73
2021/11/02 00:06:46;;;;;;;;;;;;;;;;;;343423;28;1409;-74
2021/11/02 00:06:57;;;;;;;;;;;;;;;;;;344040;28;882;-73
2021/11/02 00:07:07;;;;;;;;;;;;;;;;;;343156;28;815;-74
2021/11/02 00:07:17;;;;;;;;;;;;;;;;;;342998;28;1396;-74
2021/11/02 00:07:28;;;;;;;;;;;;;;;;;;341741;29;1312;-74
2021/11/02 00:07:38;;;;;;;;;;;;;;;;;;342614;28;917;-74
2021/11/02 00:07:49;;;;;;;;;;;;;;;;;;343126;28;547;-73
2021/11/02 00:07:59;;;;;;;;;;;;;;;;;;344428;28;1262;-73
2021/11/02 00:08:36;;;;;;;;;;;;;;;;;;344385;28;1161;-73
2021/11/02 00:08:47;;;;;;;;;;;;;;;;;;343095;28;1468;-74
2021/11/02 00:09:05;;;;;;;;;;;;;;;;;;343148;28;1029;-73
2021/11/02 00:09:36;;;;;;;;;;;;;;;;;;344404;28;897;-74
2021/11/02 00:09:48;;;;;;;;;;;;;;;;;;342881;28;1192;-73
2021/11/02 00:10:01;;;;;;;;;;;;;;;;;;342779;28;1198;-74
2021/11/02 00:10:12;;;;;;;;;;;;;;;;;;343196;28;921;-74
2021/11/02 00:10:23;;;;;;;;;;;;;;;;;;343031;28;1450;-74
2021/11/02 00:10:33;;;;;;;;;;;;;;;;;;343941;28;893;-74
2021/11/02 00:10:44;;;;;;;;;;;;;;;;;;345253;28;877;-74
2021/11/02 00:10:54;;;;;;;;;;;;;;;;;;344377;28;1303;-74
2021/11/02 00:11:04;;;;;;;;;;;;;;;;;;342869;28;1442;-74
2021/11/02 00:11:15;;;;;;;;;;;;;;;;;;343153;28;811;-73
2021/11/02 00:11:25;;;;;;;;;;;;;;;;;;341708;29;1173;-74
2021/11/02 00:11:36;;;;;;;;;;;;;;;;;;341841;29;993;-74
2021/11/02 00:11:46;;;;;;;;;;;;;;;;;;344287;28;947;-73
2021/11/02 00:11:56;;;;;;;;;;;;;;;;;;344380;28;973;-73
2021/11/02 00:12:07;;;;;;;;;;;;;;;;;;345815;28;794;-73
2021/11/02 00:12:18;;;;;;;;;;;;;;;;;;345877;28;834;-73
2021/11/02 00:12:28;;;;;;;;;;;;;;;;;;347164;28;897;-73
2021/11/02 00:12:39;;;;;;;;;;;;;;;;;;347207;28;981;-73
2021/11/02 00:12:49;;;;;;;;;;;;;;;;;;344360;28;2636;-74
2021/11/02 00:13:00;;;;;;;;;;;;;;;;;;343139;28;989;-73
2021/11/02 00:13:10;;;;;;;;;;;;;;;;;;343111;28;949;-74
2021/11/02 00:13:25;;;;;;;;;;;;;;;;;;343073;28;1322;-73
2021/11/02 00:13:38;;;;;;;;;;;;;;;;;;342044;28;1366;-74
2021/11/02 00:13:51;;;;;;;;;;;;;;;;;;343165;28;1075;-73
2021/11/02 00:14:03;;;;;;;;;;;;;;;;;;343138;28;845;-74
2021/11/02 00:14:14;;;;;;;;;;;;;;;;;;343038;28;937;-73
2021/11/02 00:14:26;;;;;;;;;;;;;;;;;;343048;28;992;-73
2021/11/02 00:15:03;;;;;;;;;;;;;;;;;;344503;28;1012;-73
2021/11/02 00:15:14;;;;;;;;;;;;;;;;;;344563;28;835;-73
2021/11/02 00:15:37;;;;;;;;;;;;;;;;;;344467;28;941;-73
2021/11/02 00:15:52;;;;;;;;;;;;;;;;;;345720;28;1073;-73
2021/11/02 00:16:04;;;;;;;;;;;;;;;;;;345846;28;810;-73
2021/11/02 00:16:18;;;;;;;;;;;;;;;;;;345825;28;949;-74
2021/11/02 00:16:29;;;;;;;;;;;;;;;;;;347162;28;825;-74
2021/11/02 00:16:52;;;;;;;;;;;;;;;;;;347326;28;995;-72
2021/11/02 00:17:16;;;;;;;;;;;;;;;;;;347284;28;944;-73
2021/11/02 00:17:58;;;;;;;;;;;;;;;;;;347109;28;949;-73
2021/11/02 00:18:22;;;;;;;;;;;;;;;;;;347199;28;969;-73
2021/11/02 00:18:37;;;;;;;;;;;;;;;;;;347106;28;886;-73
2021/11/02 00:18:58;;;;;;;;;;;;;;;;;;347133;28;952;-73
2021/11/02 00:19:09;;;;;;;;;;;;;;;;;;345879;28;921;-73
2021/11/02 00:19:19;;;;;;;;;;;;;;;;;;344641;28;1506;-73
2021/11/02 00:19:30;;;;;;;;;;;;;;;;;;345671;28;937;-73
2021/11/02 00:19:46;;;;;;;;;;;;;;;;;;345773;28;1212;-73
2021/11/02 00:20:02;;;;;;;;;;;;;;;;;;345757;28;1052;-73
2021/11/02 00:20:14;;;;;;;;;;;;;;;;;;345847;28;945;-73
2021/11/02 00:20:24;;;;;;;;;;;;;;;;;;345849;28;865;-73
2021/11/02 00:21:01;;;;;;;;;;;;;;;;;;344577;28;990;-73
2021/11/02 00:21:43;;;;;;;;;;;;;;;;;;347274;28;834;-74
2021/11/02 00:21:56;;;;;;;;;;;;;;;;;;345806;28;1015;-73
2021/11/02 00:22:15;;;;;;;;;;;;;;;;;;345734;28;838;-74
2021/11/02 00:22:27;;;;;;;;;;;;;;;;;;344455;28;901;-73
2021/11/02 00:22:39;;;;;;;;;;;;;;;;;;345891;28;858;-73
2021/11/02 00:22:56;;;;;;;;;;;;;;;;;;345841;28;885;-73
2021/11/02 00:23:09;;;;;;;;;;;;;;;;;;345746;28;925;-73
2021/11/02 00:23:19;;;;;;;;;;;;;;;;;;345775;28;976;-73
2021/11/02 00:23:39;;;;;;;;;;;;;;;;;;345808;28;988;-73
2021/11/02 00:23:57;;;;;;;;;;;;;;;;;;346659;28;818;-73
2021/11/02 00:24:38;;;;;;;;;;;;;;;;;;347264;28;904;-73
2021/11/02 00:25:15;;;;;;;;;;;;;;;;;;348521;28;972;-74
2021/11/02 00:25:27;;;;;;;;;;;;;;;;;;347941;28;849;-74
2021/11/02 00:25:37;;;;;;;;;;;;;;;;;;347268;28;1393;-73
2021/11/02 00:26:06;;;;;;;;;;;;;;;;;;347297;28;853;-73
2021/11/02 00:26:16;;;;;;;;;;;;;;;;;;347412;28;806;-75
2021/11/02 00:26:27;;;;;;;;;;;;;;;;;;347338;28;854;-74
2021/11/02 00:26:43;;;;;;;;;;;;;;;;;;347259;28;500;-73
2021/11/02 00:26:54;;;;;;;;;;;;;;;;;;347292;28;1027;-74
2021/11/02 00:27:09;;;;;;;;;;;;;;;;;;347213;28;814;-73
2021/11/02 00:27:26;;;;;;;;;;;;;;;;;;345631;28;1165;-74
2021/11/02 00:28:06;;;;;;;;;;;;;;;;;;345804;28;890;-74
2021/11/02 00:28:16;;;;;;;;;;;;;;;;;;345713;28;1890;-73
2021/11/02 00:28:26;;;;;;;;;;;;;;;;;;345821;28;960;-74
2021/11/02 00:28:37;;;;;;;;;;;;;;;;;;345815;28;913;-73
2021/11/02 00:28:48;;;;;;;;;;;;;;;;;;345825;28;811;-74
2021/11/02 00:28:58;;;;;;;;;;;;;;;;;;345899;28;736;-74
2021/11/02 00:29:09;;;;;;;;;;;;;;;;;;344426;28;1004;-73
2021/11/02 00:29:19;;;;;;;;;;;;;;;;;;345685;28;955;-73
2021/11/02 00:29:36;;;;;;;;;;;;;;;;;;347058;28;838;-73
2021/11/02 00:29:46;;;;;;;;;;;;;;;;;;346987;28;802;-73
2021/11/02 00:29:56;;;;;;;;;;;;;;;;;;347211;28;865;-73
2021/11/02 00:30:11;;;;;;;;;;;;;;;;;;347161;28;953;-74
2021/11/02 00:30:22;;;;;;;;;;;;;;;;;;345876;28;870;-73
2021/11/02 00:30:33;;;;;;;;;;;;;;;;;;345818;28;841;-73
2021/11/02 00:30:43;;;;;;;;;;;;;;;;;;345831;28;834;-73
2021/11/02 00:30:54;;;;;;;;;;;;;;;;;;345775;28;854;-73
2021/11/02 00:31:04;;;;;;;;;;;;;;;;;;346518;28;861;-73
2021/11/02 00:31:15;;;;;;;;;;;;;;;;;;347213;28;1039;-73
2021/11/02 00:31:25;;;;;;;;;;;;;;;;;;347170;28;985;-73
2021/11/02 00:31:36;;;;;;;;;;;;;;;;;;347189;28;1060;-73
2021/11/02 00:32:02;;;;;;;;;;;;;;;;;;347164;28;983;-74
2021/11/02 00:32:12;;;;;;;;;;;;;;;;;;347175;28;984;-73
2021/11/02 00:32:23;;;;;;;;;;;;;;;;;;347308;28;873;-73
2021/11/02 00:32:43;;;;;;;;;;;;;;;;;;347390;28;993;-73
2021/11/02 00:32:55;;;;;;;;;;;;;;;;;;347341;28;1000;-73
2021/11/02 00:33:06;;;;;;;;;;;;;;;;;;347323;28;933;-73
2021/11/02 00:33:16;;;;;;;;;;;;;;;;;;347199;28;810;-73
2021/11/02 00:33:26;;;;;;;;;;;;;;;;;;345856;28;996;-74
2021/11/02 00:33:54;;;;;;;;;;;;;;;;;;344444;28;917;-75
2021/11/02 00:34:04;;;;;;;;;;;;;;;;;;341726;28;1287;-73
2021/11/02 00:34:14;;;;;;;;;;;;;;;;;;341682;29;1009;-73
2021/11/02 00:34:25;;;;;;;;;;;;;;;;;;341471;29;1481;-73
2021/11/02 00:34:35;;;;;;;;;;;;;;;;;;342844;28;1469;-74
2021/11/02 00:34:45;;;;;;;;;;;;;;;;;;343040;28;989;-73
2021/11/02 00:35:23;;;;;;;;;;;;;;;;;;342975;28;1335;-74
2021/11/02 00:36:25;;;;;;;;;;;;;;;;;;345477;28;945;-73
2021/11/02 00:36:35;;;;;;;;;;;;;;;;;;345846;28;977;-73
2021/11/02 00:36:45;;;;;;;;;;;;;;;;;;345763;28;945;-73
2021/11/02 00:36:56;;;;;;;;;;;;;;;;;;346992;28;941;-73
2021/11/02 00:37:06;;;;;;;;;;;;;;;;;;347104;28;893;-73
2021/11/02 00:37:17;;;;;;;;;;;;;;;;;;347211;28;913;-73
2021/11/02 00:37:27;;;;;;;;;;;;;;;;;;347249;28;976;-74
2021/11/02 00:37:38;;;;;;;;;;;;;;;;;;347135;28;918;-73
2021/11/02 00:37:48;;;;;;;;;;;;;;;;;;345670;28;1357;-73
2021/11/02 00:37:59;;;;;;;;;;;;;;;;;;345830;28;921;-73
2021/11/02 00:38:09;;;;;;;;;;;;;;;;;;345745;28;1455;-71
2021/11/02 00:38:20;;;;;;;;;;;;;;;;;;345725;28;1413;-74
2021/11/02 00:38:31;;;;;;;;;;;;;;;;;;345810;28;763;-74
2021/11/02 00:39:08;;;;;;;;;;;;;;;;;;345850;28;909;-72
2021/11/02 00:39:18;;;;;;;;;;;;;;;;;;344343;28;1266;-73
2021/11/02 00:39:29;;;;;;;;;;;;;;;;;;345835;28;823;-73
2021/11/02 00:39:40;;;;;;;;;;;;;;;;;;345692;28;826;-74
2021/11/02 00:39:50;;;;;;;;;;;;;;;;;;344320;28;1075;-73
2021/11/02 00:40:01;;;;;;;;;;;;;;;;;;344432;28;842;-73
2021/11/02 00:40:12;;;;;;;;;;;;;;;;;;343208;28;989;-72
2021/11/02 00:40:23;;;;;;;;;;;;;;;;;;344411;28;1036;-73
2021/11/02 00:40:36;;;;;;;;;;;;;;;;;;344452;28;922;-74
2021/11/02 00:40:47;;;;;;;;;;;;;;;;;;344334;28;1331;-74
2021/11/02 00:40:57;;;;;;;;;;;;;;;;;;344245;28;944;-74
2021/11/02 00:41:07;;;;;;;;;;;;;;;;;;344463;28;827;-74
2021/11/02 00:41:18;;;;;;;;;;;;;;;;;;345600;28;1205;-73
2021/11/02 00:41:28;;;;;;;;;;;;;;;;;;346987;28;981;-74
2021/11/02 00:41:38;;;;;;;;;;;;;;;;;;345800;28;1052;-73
2021/11/02 00:42:15;;;;;;;;;;;;;;;;;;347107;28;945;-73
2021/11/02 00:42:37;;;;;;;;;;;;;;;;;;345710;28;1356;-74
2021/11/02 00:42:55;;;;;;;;;;;;;;;;;;344496;28;826;-74
2021/11/02 00:43:24;;;;;;;;;;;;;;;;;;342968;28;1029;-73
2021/11/02 00:43:36;;;;;;;;;;;;;;;;;;343702;28;823;-74
2021/11/02 00:43:48;;;;;;;;;;;;;;;;;;345835;28;830;-74
2021/11/02 00:43:58;;;;;;;;;;;;;;;;;;345775;28;930;-74
2021/11/02 00:44:08;;;;;;;;;;;;;;;;;;344360;28;1430;-73
2021/11/02 00:44:21;;;;;;;;;;;;;;;;;;344775;28;917;-73
2021/11/02 00:44:32;;;;;;;;;;;;;;;;;;344397;28;1575;-73
2021/11/02 00:44:45;;;;;;;;;;;;;;;;;;344368;28;1036;-75
2021/11/02 00:44:56;;;;;;;;;;;;;;;;;;344377;28;905;-74
2021/11/02 00:45:08;;;;;;;;;;;;;;;;;;345708;28;831;-73
2021/11/02 00:45:31;;;;;;;;;;;;;;;;;;345747;28;899;-73
2021/11/02 00:45:47;;;;;;;;;;;;;;;;;;345809;28;1056;-73
2021/11/02 00:46:04;;;;;;;;;;;;;;;;;;346335;28;929;-73
2021/11/02 00:46:15;;;;;;;;;;;;;;;;;;347163;28;1028;-74
2021/11/02 00:46:34;;;;;;;;;;;;;;;;;;346995;28;1348;-73
2021/11/02 00:46:44;;;;;;;;;;;;;;;;;;347143;28;945;-73
2021/11/02 00:47:13;;;;;;;;;;;;;;;;;;347158;28;980;-73
2021/11/02 00:47:25;;;;;;;;;;;;;;;;;;345699;28;1289;-73
2021/11/02 00:47:38;;;;;;;;;;;;;;;;;;345690;28;984;-73
2021/11/02 00:47:55;;;;;;;;;;;;;;;;;;345659;28;1314;-73
2021/11/02 00:48:08;;;;;;;;;;;;;;;;;;345831;28;855;-74
2021/11/02 00:48:26;;;;;;;;;;;;;;;;;;345679;28;1894;-73
2021/11/02 00:48:36;;;;;;;;;;;;;;;;;;347160;28;834;-73
2021/11/02 00:48:47;;;;;;;;;;;;;;;;;;345739;28;1596;-73
2021/11/02 00:48:58;;;;;;;;;;;;;;;;;;345857;28;885;-73
2021/11/02 00:49:16;;;;;;;;;;;;;;;;;;345848;28;862;-73
2021/11/02 00:49:27;;;;;;;;;;;;;;;;;;347151;28;814;-74
2021/11/02 00:49:38;;;;;;;;;;;;;;;;;;345793;28;980;-73
2021/11/02 00:49:49;;;;;;;;;;;;;;;;;;344282;28;897;-74
2021/11/02 00:50:01;;;;;;;;;;;;;;;;;;344389;28;972;-74
2021/11/02 00:50:11;;;;;;;;;;;;;;;;;;344393;28;1558;-74
2021/11/02 00:50:22;;;;;;;;;;;;;;;;;;344452;28;846;-73
2021/11/02 00:50:34;;;;;;;;;;;;;;;;;;344390;28;968;-73
2021/11/02 00:50:45;;;;;;;;;;;;;;;;;;344426;28;934;-73
2021/11/02 00:50:56;;;;;;;;;;;;;;;;;;343024;28;1216;-74
2021/11/02 00:51:06;;;;;;;;;;;;;;;;;;343188;28;818;-74
2021/11/02 00:51:16;;;;;;;;;;;;;;;;;;343121;28;870;-73
2021/11/02 00:51:27;;;;;;;;;;;;;;;;;;343132;28;842;-73
2021/11/02 00:51:37;;;;;;;;;;;;;;;;;;343066;28;1024;-74
2021/11/02 00:51:51;;;;;;;;;;;;;;;;;;343023;28;1157;-73
2021/11/02 00:52:01;;;;;;;;;;;;;;;;;;341621;29;1176;-73
2021/11/02 00:52:12;;;;;;;;;;;;;;;;;;344049;28;945;-73
2021/11/02 00:52:22;;;;;;;;;;;;;;;;;;343061;28;1425;-74
2021/11/02 00:52:33;;;;;;;;;;;;;;;;;;343117;28;1009;-73
2021/11/02 00:52:43;;;;;;;;;;;;;;;;;;343082;28;886;-74
2021/11/02 00:52:54;;;;;;;;;;;;;;;;;;343168;28;835;-73
2021/11/02 00:53:05;;;;;;;;;;;;;;;;;;340352;29;1608;-73
2021/11/02 00:53:15;;;;;;;;;;;;;;;;;;340507;29;831;-73
2021/11/02 00:53:25;;;;;;;;;;;;;;;;;;340478;29;1053;-73
2021/11/02 00:53:36;;;;;;;;;;;;;;;;;;344377;28;1157;-73
2021/11/02 00:53:46;;;;;;;;;;;;;;;;;;344404;28;783;-73
2021/11/02 00:53:57;;;;;;;;;;;;;;;;;;344418;28;898;-73
2021/11/02 00:54:07;;;;;;;;;;;;;;;;;;344406;28;910;-73
2021/11/02 00:54:18;;;;;;;;;;;;;;;;;;344366;28;1259;-73
2021/11/02 00:54:28;;;;;;;;;;;;;;;;;;344383;28;934;-73
2021/11/02 00:54:38;;;;;;;;;;;;;;;;;;344518;28;826;-73
2021/11/02 00:54:49;;;;;;;;;;;;;;;;;;344311;28;1001;-73
2021/11/02 00:55:00;;;;;;;;;;;;;;;;;;342910;28;1149;-73
2021/11/02 00:55:11;;;;;;;;;;;;;;;;;;343014;28;1405;-73
2021/11/02 00:55:22;;;;;;;;;;;;;;;;;;343023;28;1153;-73
2021/11/02 00:55:32;;;;;;;;;;;;;;;;;;343099;28;937;-73
2021/11/02 00:55:43;;;;;;;;;;;;;;;;;;343089;28;1017;-73
2021/11/02 00:55:53;;;;;;;;;;;;;;;;;;343089;28;807;-73
2021/11/02 00:56:04;;;;;;;;;;;;;;;;;;341808;29;874;-73
2021/11/02 00:56:14;;;;;;;;;;;;;;;;;;341827;29;768;-73
2021/11/02 00:56:24;;;;;;;;;;;;;;;;;;344135;28;1492;-72
2021/11/02 00:56:35;;;;;;;;;;;;;;;;;;341465;29;1011;-73
2021/11/02 00:56:46;;;;;;;;;;;;;;;;;;341793;29;958;-73
2021/11/02 00:56:56;;;;;;;;;;;;;;;;;;341524;29;982;-74
2021/11/02 00:57:07;;;;;;;;;;;;;;;;;;341757;29;974;-73
2021/11/02 00:57:17;;;;;;;;;;;;;;;;;;341614;29;1311;-73
2021/11/02 00:57:27;;;;;;;;;;;;;;;;;;341709;29;1186;-73
2021/11/02 00:57:38;;;;;;;;;;;;;;;;;;341612;29;1473;-72
2021/11/02 00:57:48;;;;;;;;;;;;;;;;;;340475;29;859;-73
2021/11/02 00:58:01;;;;;;;;;;;;;;;;;;340478;29;808;-74
2021/11/02 00:58:11;;;;;;;;;;;;;;;;;;340471;29;1021;-73
2021/11/02 00:58:22;;;;;;;;;;;;;;;;;;341741;29;949;-74
2021/11/02 00:58:33;;;;;;;;;;;;;;;;;;343091;28;918;-74
2021/11/02 00:58:43;;;;;;;;;;;;;;;;;;343037;28;1028;-74
2021/11/02 00:58:53;;;;;;;;;;;;;;;;;;343127;28;978;-73
2021/11/02 00:59:04;;;;;;;;;;;;;;;;;;342950;28;1185;-73
2021/11/02 00:59:14;;;;;;;;;;;;;;;;;;344324;28;1399;-73
2021/11/02 00:59:25;;;;;;;;;;;;;;;;;;344474;28;790;-74
2021/11/02 00:59:35;;;;;;;;;;;;;;;;;;345388;28;953;-73
2021/11/02 00:59:47;;;;;;;;;;;;;;;;;;345801;28;905;-73
2021/11/02 00:59:57;;;;;;;;;;;;;;;;;;345714;28;988;-73
2021/11/02 01:00:09;;;;;;;;;;;;;;;;;;344216;28;1465;-73
2021/11/02 01:00:19;;;;;;;;;;;;;;;;;;343605;28;913;-73
2021/11/02 01:00:29;;;;;;;;;;;;;;;;;;343931;28;930;-73
2021/11/02 01:00:41;;;;;;;;;;;;;;;;;;344448;28;934;-73
2021/11/02 01:01:17;;;;;;;;;;;;;;;;;;347077;28;1002;-72
2021/11/02 01:01:28;;;;;;;;;;;;;;;;;;347196;28;798;-73
2021/11/02 01:01:41;;;;;;;;;;;;;;;;;;345707;28;1277;-73
2021/11/02 01:01:51;;;;;;;;;;;;;;;;;;345809;28;1056;-73
2021/11/02 01:02:05;;;;;;;;;;;;;;;;;;346239;28;985;-74
2021/11/02 01:02:18;;;;;;;;;;;;;;;;;;345723;28;882;-73
2021/11/02 01:02:28;;;;;;;;;;;;;;;;;;344395;28;878;-74
2021/11/02 01:02:39;;;;;;;;;;;;;;;;;;344492;28;1002;-74
2021/11/02 01:02:49;;;;;;;;;;;;;;;;;;342921;28;1057;-73
2021/11/02 01:03:00;;;;;;;;;;;;;;;;;;342875;28;934;-73
2021/11/02 01:03:11;;;;;;;;;;;;;;;;;;342946;28;819;-73
2021/11/02 01:03:21;;;;;;;;;;;;;;;;;;342715;28;1083;-74
2021/11/02 01:03:33;;;;;;;;;;;;;;;;;;343096;28;997;-73
2021/11/02 01:03:43;;;;;;;;;;;;;;;;;;344389;28;850;-74
2021/11/02 01:03:54;;;;;;;;;;;;;;;;;;343004;28;1367;-74
2021/11/02 01:04:05;;;;;;;;;;;;;;;;;;343121;28;838;-74
2021/11/02 01:04:16;;;;;;;;;;;;;;;;;;343095;28;1005;-73
2021/11/02 01:04:26;;;;;;;;;;;;;;;;;;343969;28;898;-73
2021/11/02 01:05:03;;;;;;;;;;;;;;;;;;345665;28;965;-73
2021/11/02 01:05:40;;;;;;;;;;;;;;;;;;345717;28;803;-73
2021/11/02 01:05:50;;;;;;;;;;;;;;;;;;346496;28;904;-74
2021/11/02 01:06:01;;;;;;;;;;;;;;;;;;347281;28;810;-73
2021/11/02 01:06:11;;;;;;;;;;;;;;;;;;347213;28;929;-73
2021/11/02 01:06:22;;;;;;;;;;;;;;;;;;347163;28;941;-73
2021/11/02 01:06:32;;;;;;;;;;;;;;;;;;347165;28;790;-73
2021/11/02 01:06:43;;;;;;;;;;;;;;;;;;347168;28;483;-74
2021/11/02 01:06:53;;;;;;;;;;;;;;;;;;347184;28;838;-73
2021/11/02 01:07:04;;;;;;;;;;;;;;;;;;345435;28;1299;-73
2021/11/02 01:07:15;;;;;;;;;;;;;;;;;;345705;28;1122;-74
2021/11/02 01:07:25;;;;;;;;;;;;;;;;;;345667;28;1160;-74
2021/11/02 01:07:36;;;;;;;;;;;;;;;;;;345699;28;1492;-74
2021/11/02 01:07:47;;;;;;;;;;;;;;;;;;345713;28;898;-74
2021/11/02 01:07:57;;;;;;;;;;;;;;;;;;344326;28;1287;-74
2021/11/02 01:08:07;;;;;;;;;;;;;;;;;;343146;28;811;-73
2021/11/02 01:08:44;;;;;;;;;;;;;;;;;;343050;28;870;-73
2021/11/02 01:08:54;;;;;;;;;;;;;;;;;;343110;28;834;-73
2021/11/02 01:09:05;;;;;;;;;;;;;;;;;;344417;28;1161;-73
2021/11/02 01:09:16;;;;;;;;;;;;;;;;;;342962;28;1245;-73
2021/11/02 01:09:26;;;;;;;;;;;;;;;;;;343091;28;992;-72
2021/11/02 01:09:52;;;;;;;;;;;;;;;;;;341759;29;922;-73
2021/11/02 01:10:04;;;;;;;;;;;;;;;;;;343444;28;969;-73
2021/11/02 01:10:17;;;;;;;;;;;;;;;;;;344960;28;846;-73
2021/11/02 01:10:28;;;;;;;;;;;;;;;;;;345804;28;906;-73
2021/11/02 01:11:04;;;;;;;;;;;;;;;;;;344354;28;863;-74
2021/11/02 01:11:30;;;;;;;;;;;;;;;;;;344490;28;815;-73
2021/11/02 01:11:41;;;;;;;;;;;;;;;;;;345725;28;1045;-73
2021/11/02 01:11:51;;;;;;;;;;;;;;;;;;345644;28;1412;-74
2021/11/02 01:12:02;;;;;;;;;;;;;;;;;;344948;28;1281;-73
2021/11/02 01:12:12;;;;;;;;;;;;;;;;;;345768;28;810;-72
2021/11/02 01:12:22;;;;;;;;;;;;;;;;;;345679;28;850;-72
2021/11/02 01:12:33;;;;;;;;;;;;;;;;;;345829;28;806;-73
2021/11/02 01:12:44;;;;;;;;;;;;;;;;;;345778;28;782;-73
2021/11/02 01:12:54;;;;;;;;;;;;;;;;;;345793;28;886;-74
2021/11/02 01:13:05;;;;;;;;;;;;;;;;;;345791;28;894;-73
2021/11/02 01:13:16;;;;;;;;;;;;;;;;;;345734;28;942;-73
2021/11/02 01:13:52;;;;;;;;;;;;;;;;;;347071;28;894;-73
2021/11/02 01:14:04;;;;;;;;;;;;;;;;;;348554;28;838;-73
2021/11/02 01:14:14;;;;;;;;;;;;;;;;;;348377;28;853;-74
2021/11/02 01:14:25;;;;;;;;;;;;;;;;;;348385;28;849;-73
2021/11/02 01:14:35;;;;;;;;;;;;;;;;;;347149;28;902;-73
2021/11/02 01:14:46;;;;;;;;;;;;;;;;;;347104;28;1192;-74
2021/11/02 01:14:56;;;;;;;;;;;;;;;;;;346777;28;1213;-74
2021/11/02 01:15:07;;;;;;;;;;;;;;;;;;346951;28;985;-74
2021/11/02 01:15:45;;;;;;;;;;;;;;;;;;345642;28;1435;-73
2021/11/02 01:15:56;;;;;;;;;;;;;;;;;;345847;28;834;-72
2021/11/02 01:16:06;;;;;;;;;;;;;;;;;;345776;28;819;-72
2021/11/02 01:16:18;;;;;;;;;;;;;;;;;;344336;28;1618;-73
2021/11/02 01:16:29;;;;;;;;;;;;;;;;;;344330;28;827;-73
2021/11/02 01:16:39;;;;;;;;;;;;;;;;;;344440;28;921;-73
2021/11/02 01:16:50;;;;;;;;;;;;;;;;;;344468;28;842;-74
2021/11/02 01:17:00;;;;;;;;;;;;;;;;;;344384;28;961;-74
2021/11/02 01:17:11;;;;;;;;;;;;;;;;;;344449;28;807;-74
2021/11/02 01:17:28;;;;;;;;;;;;;;;;;;344390;28;834;-73
2021/11/02 01:17:39;;;;;;;;;;;;;;;;;;344657;28;1020;-73
2021/11/02 01:17:49;;;;;;;;;;;;;;;;;;345774;28;977;-73
2021/11/02 01:18:20;;;;;;;;;;;;;;;;;;341631;29;1005;-73
2021/11/02 01:18:30;;;;;;;;;;;;;;;;;;340366;29;886;-73
2021/11/02 01:18:41;;;;;;;;;;;;;;;;;;338794;29;1225;-73
2021/11/02 01:18:52;;;;;;;;;;;;;;;;;;339131;29;803;-73
2021/11/02 01:19:02;;;;;;;;;;;;;;;;;;340424;29;819;-74
2021/11/02 01:19:13;;;;;;;;;;;;;;;;;;340436;29;990;-74
2021/11/02 01:19:23;;;;;;;;;;;;;;;;;;340386;29;974;-74
2021/11/02 01:19:33;;;;;;;;;;;;;;;;;;340351;29;1040;-73
2021/11/02 01:19:44;;;;;;;;;;;;;;;;;;340293;29;951;-73
2021/11/02 01:19:54;;;;;;;;;;;;;;;;;;340834;29;843;-73
2021/11/02 01:20:06;;;;;;;;;;;;;;;;;;341577;29;847;-73
2021/11/02 01:20:19;;;;;;;;;;;;;;;;;;341611;29;894;-74
2021/11/02 01:20:36;;;;;;;;;;;;;;;;;;343550;28;815;-74
2021/11/02 01:20:47;;;;;;;;;;;;;;;;;;344108;28;952;-73
2021/11/02 01:20:58;;;;;;;;;;;;;;;;;;344333;28;977;-74
2021/11/02 01:21:08;;;;;;;;;;;;;;;;;;344319;28;933;-73
2021/11/02 01:21:19;;;;;;;;;;;;;;;;;;344386;28;906;-74
2021/11/02 01:21:29;;;;;;;;;;;;;;;;;;343003;28;901;-74
2021/11/02 01:22:06;;;;;;;;;;;;;;;;;;343042;28;815;-73
2021/11/02 01:22:16;;;;;;;;;;;;;;;;;;342977;28;925;-73
2021/11/02 01:22:27;;;;;;;;;;;;;;;;;;342993;28;979;-74
2021/11/02 01:22:37;;;;;;;;;;;;;;;;;;343078;28;822;-73
2021/11/02 01:22:48;;;;;;;;;;;;;;;;;;343060;28;841;-74
2021/11/02 01:22:58;;;;;;;;;;;;;;;;;;342880;28;794;-73
2021/11/02 01:23:08;;;;;;;;;;;;;;;;;;341476;28;1001;-73
2021/11/02 01:23:19;;;;;;;;;;;;;;;;;;341724;29;818;-73
2021/11/02 01:23:32;;;;;;;;;;;;;;;;;;342917;28;1029;-73
2021/11/02 01:23:43;;;;;;;;;;;;;;;;;;341713;29;976;-74
2021/11/02 01:23:53;;;;;;;;;;;;;;;;;;340299;29;1146;-74
2021/11/02 01:24:04;;;;;;;;;;;;;;;;;;340316;29;874;-74
2021/11/02 01:24:14;;;;;;;;;;;;;;;;;;340370;29;987;-73
2021/11/02 01:24:25;;;;;;;;;;;;;;;;;;340406;29;819;-74
2021/11/02 01:24:36;;;;;;;;;;;;;;;;;;341703;29;930;-73
2021/11/02 01:24:46;;;;;;;;;;;;;;;;;;341665;29;907;-73
2021/11/02 01:24:57;;;;;;;;;;;;;;;;;;341568;29;1345;-73
2021/11/02 01:25:08;;;;;;;;;;;;;;;;;;340192;29;1303;-73
2021/11/02 01:25:21;;;;;;;;;;;;;;;;;;340109;29;1363;-74
2021/11/02 01:25:31;;;;;;;;;;;;;;;;;;340414;29;1048;-73
2021/11/02 01:26:07;;;;;;;;;;;;;;;;;;340330;29;1415;-73
2021/11/02 01:26:17;;;;;;;;;;;;;;;;;;341628;29;1457;-73
2021/11/02 01:26:28;;;;;;;;;;;;;;;;;;341713;29;902;-73
2021/11/02 01:26:38;;;;;;;;;;;;;;;;;;340337;29;1429;-72
2021/11/02 01:27:15;;;;;;;;;;;;;;;;;;341695;29;815;-73
2021/11/02 01:27:25;;;;;;;;;;;;;;;;;;340081;29;1317;-73
2021/11/02 01:27:36;;;;;;;;;;;;;;;;;;340309;29;1151;-74
2021/11/02 01:27:46;;;;;;;;;;;;;;;;;;339095;29;923;-73
2021/11/02 01:27:57;;;;;;;;;;;;;;;;;;339107;29;850;-72
2021/11/02 01:28:07;;;;;;;;;;;;;;;;;;339116;29;819;-74
2021/11/02 01:28:18;;;;;;;;;;;;;;;;;;338974;29;1961;-73
2021/11/02 01:28:28;;;;;;;;;;;;;;;;;;339022;29;941;-73
2021/11/02 01:28:39;;;;;;;;;;;;;;;;;;340240;29;1004;-73
2021/11/02 01:28:49;;;;;;;;;;;;;;;;;;340364;29;973;-73
2021/11/02 01:28:59;;;;;;;;;;;;;;;;;;340390;29;930;-73
2021/11/02 01:29:10;;;;;;;;;;;;;;;;;;340380;29;910;-74
2021/11/02 01:29:20;;;;;;;;;;;;;;;;;;340891;29;835;-73
2021/11/02 01:29:30;;;;;;;;;;;;;;;;;;341384;29;980;-73
2021/11/02 01:29:41;;;;;;;;;;;;;;;;;;342031;28;957;-73
2021/11/02 01:29:57;;;;;;;;;;;;;;;;;;343050;28;898;-73
2021/11/02 01:30:09;;;;;;;;;;;;;;;;;;342982;28;830;-72
2021/11/02 01:30:20;;;;;;;;;;;;;;;;;;344240;28;1151;-73
2021/11/02 01:30:30;;;;;;;;;;;;;;;;;;344283;28;952;-74
2021/11/02 01:30:40;;;;;;;;;;;;;;;;;;344307;28;985;-73
2021/11/02 01:30:51;;;;;;;;;;;;;;;;;;344362;28;955;-73
2021/11/02 01:31:01;;;;;;;;;;;;;;;;;;344362;28;929;-73
2021/11/02 01:31:11;;;;;;;;;;;;;;;;;;344227;28;1498;-74
2021/11/02 01:31:22;;;;;;;;;;;;;;;;;;344347;28;989;-73
2021/11/02 01:31:32;;;;;;;;;;;;;;;;;;344405;28;893;-75
2021/11/02 01:31:43;;;;;;;;;;;;;;;;;;344290;28;901;-74
2021/11/02 01:31:54;;;;;;;;;;;;;;;;;;344224;28;1433;-73
2021/11/02 01:32:04;;;;;;;;;;;;;;;;;;344281;28;1322;-73
2021/11/02 01:32:15;;;;;;;;;;;;;;;;;;344292;28;955;-74
2021/11/02 01:32:25;;;;;;;;;;;;;;;;;;344255;28;1036;-74
2021/11/02 01:32:35;;;;;;;;;;;;;;;;;;344403;28;869;-73
2021/11/02 01:32:46;;;;;;;;;;;;;;;;;;344318;28;985;-74
2021/11/02 01:33:02;;;;;;;;;;;;;;;;;;344325;28;984;-74
2021/11/02 01:33:13;;;;;;;;;;;;;;;;;;344391;28;906;-74
2021/11/02 01:33:23;;;;;;;;;;;;;;;;;;342984;28;849;-73
2021/11/02 01:33:34;;;;;;;;;;;;;;;;;;344339;28;937;-73
2021/11/02 01:33:44;;;;;;;;;;;;;;;;;;342893;28;1157;-72
2021/11/02 01:33:54;;;;;;;;;;;;;;;;;;342967;28;961;-72
2021/11/02 01:34:05;;;;;;;;;;;;;;;;;;344232;28;858;-73
2021/11/02 01:34:16;;;;;;;;;;;;;;;;;;343050;28;809;-73
2021/11/02 01:34:26;;;;;;;;;;;;;;;;;;342995;28;1028;-73
2021/11/02 01:34:37;;;;;;;;;;;;;;;;;;343012;28;829;-72
2021/11/02 01:34:47;;;;;;;;;;;;;;;;;;344268;28;1170;-73
2021/11/02 01:35:00;;;;;;;;;;;;;;;;;;344337;28;793;-73
2021/11/02 01:35:19;;;;;;;;;;;;;;;;;;343493;28;924;-74
2021/11/02 01:35:37;;;;;;;;;;;;;;;;;;341761;29;830;-73